createdAt,value
2024-01-06T00:01:23.759Z,17.60
2024-01-06T00:03:52.242Z,14.50
2024-01-06T00:06:20.555Z,17.60
2024-01-06T00:08:55.372Z,19.80
2024-01-06T00:11:24.606Z,15.30
2024-01-06T00:13:52.777Z,21.70
2024-01-06T00:16:21.782Z,12.50
2024-01-06T00:18:50.234Z,21.90
2024-01-06T00:21:18.653Z,22.30
2024-01-06T00:23:47.078Z,19.00
2024-01-06T00:26:15.239Z,17.30
2024-01-06T00:28:43.691Z,15.60
2024-01-06T00:31:12.032Z,17.40
2024-01-06T00:33:40.577Z,20.80
2024-01-06T00:36:09.458Z,18.20
2024-01-06T00:38:38.051Z,21.80
2024-01-06T00:41:06.520Z,19.50
2024-01-06T00:43:34.725Z,18.80
2024-01-06T00:46:02.994Z,22.20
2024-01-06T00:48:31.490Z,19.90
2024-01-06T00:50:59.917Z,28.60
2024-01-06T00:53:28.420Z,19.90
2024-01-06T00:55:56.519Z,18.10
2024-01-06T00:58:24.793Z,18.90
2024-01-06T01:00:53.026Z,24.90
2024-01-06T01:03:21.554Z,20.80
2024-01-06T01:05:50.332Z,18.40
2024-01-06T01:08:19.235Z,20.00
2024-01-06T01:10:47.406Z,19.90
2024-01-06T01:13:15.600Z,19.30
2024-01-06T01:15:43.837Z,18.90
2024-01-06T01:18:12.271Z,18.70
2024-01-06T01:20:42.974Z,12.90
2024-01-06T01:23:11.295Z,16.00
2024-01-06T01:25:39.751Z,17.50
2024-01-06T01:28:08.173Z,16.30
2024-01-06T01:30:36.717Z,22.30
2024-01-06T01:33:05.734Z,16.30
2024-01-06T01:35:34.251Z,17.50
2024-01-06T01:38:02.409Z,20.50
2024-01-06T01:40:30.524Z,19.40
2024-01-06T01:42:58.705Z,17.90
2024-01-06T01:45:27.135Z,16.50
2024-01-06T01:47:55.468Z,19.80
2024-01-06T01:50:24.394Z,20.90
2024-01-06T01:52:53.092Z,21.40
2024-01-06T01:55:21.866Z,19.90
2024-01-06T01:57:50.265Z,18.60
2024-01-06T02:00:19.063Z,16.10
2024-01-06T02:02:48.065Z,18.60
2024-01-06T02:05:16.322Z,22.30
2024-01-06T02:07:44.587Z,17.80
2024-01-06T02:10:13.012Z,20.40
2024-01-06T02:12:41.375Z,15.90
2024-01-06T02:15:10.375Z,15.60
2024-01-06T02:17:41.152Z,15.60
2024-01-06T02:20:10.823Z,15.50
2024-01-06T02:22:39.000Z,18.70
2024-01-06T02:25:13.677Z,14.80
2024-01-06T02:27:42.310Z,14.30
2024-01-06T02:30:11.491Z,15.20
2024-01-06T02:32:39.984Z,16.20
2024-01-06T02:35:08.998Z,15.70
2024-01-06T02:37:37.322Z,21.10
2024-01-06T02:40:06.169Z,15.50
2024-01-06T02:42:34.503Z,15.80
2024-01-06T02:45:02.928Z,19.50
2024-01-06T02:47:31.062Z,16.00
2024-01-06T02:49:59.588Z,16.40
2024-01-06T02:52:27.894Z,17.20
2024-01-06T02:54:56.351Z,18.10
2024-01-06T02:57:24.888Z,18.80
2024-01-06T02:59:53.421Z,15.80
2024-01-06T03:02:21.745Z,15.20
2024-01-06T03:04:50.543Z,14.70
2024-01-06T03:07:18.811Z,15.40
2024-01-06T03:09:47.243Z,17.50
2024-01-06T03:12:15.788Z,18.80
2024-01-06T03:14:44.176Z,20.90
2024-01-06T03:17:12.760Z,19.80
2024-01-06T03:19:41.242Z,18.30
2024-01-06T03:22:09.668Z,18.50
2024-01-06T03:24:38.375Z,17.10
2024-01-06T03:27:06.561Z,16.10
2024-01-06T03:29:34.707Z,21.70
2024-01-06T03:32:03.085Z,20.90
2024-01-06T03:34:31.514Z,13.90
2024-01-06T03:36:59.958Z,15.00
2024-01-06T03:39:28.309Z,16.10
2024-01-06T03:41:56.808Z,20.00
2024-01-06T03:44:25.115Z,18.60
2024-01-06T03:46:53.477Z,16.90
2024-01-06T03:49:22.197Z,16.70
2024-01-06T03:51:50.771Z,16.60
2024-01-06T03:54:19.122Z,21.40
2024-01-06T03:56:47.701Z,19.10
2024-01-06T03:59:16.017Z,16.00
2024-01-06T04:01:44.385Z,19.30
2024-01-06T04:04:13.790Z,16.50
2024-01-06T04:06:42.329Z,19.20
2024-01-06T04:09:10.967Z,22.00
2024-01-06T04:11:39.227Z,24.60
2024-01-06T04:14:07.640Z,20.00
2024-01-06T04:16:35.936Z,17.90
2024-01-06T04:19:04.246Z,18.90
2024-01-06T04:21:32.617Z,19.40
2024-01-06T04:24:01.297Z,21.50
2024-01-06T04:26:29.558Z,15.70
2024-01-06T04:28:57.779Z,18.00
2024-01-06T04:31:26.299Z,16.10
2024-01-06T04:33:54.996Z,15.40
2024-01-06T04:36:23.529Z,15.20
2024-01-06T04:38:51.999Z,17.00
2024-01-06T04:41:20.194Z,20.50
2024-01-06T04:43:48.536Z,15.70
2024-01-06T04:46:16.976Z,21.10
2024-01-06T04:48:45.632Z,19.50
2024-01-06T04:51:14.820Z,23.00
2024-01-06T04:53:43.298Z,17.10
2024-01-06T04:56:11.689Z,17.40
2024-01-06T04:58:40.186Z,13.60
2024-01-06T05:01:09.629Z,20.00
2024-01-06T05:03:38.412Z,21.80
2024-01-06T05:06:06.731Z,16.40
2024-01-06T05:08:34.947Z,18.00
2024-01-06T05:11:03.228Z,16.80
2024-01-06T05:13:31.931Z,18.70
2024-01-06T05:16:00.204Z,17.50
2024-01-06T05:18:28.926Z,18.80
2024-01-06T05:20:58.191Z,19.40
2024-01-06T05:23:26.523Z,21.10
2024-01-06T05:25:54.932Z,22.40
2024-01-06T05:28:23.057Z,19.60
2024-01-06T05:30:51.530Z,18.90
2024-01-06T05:33:20.072Z,20.00
2024-01-06T05:35:48.590Z,23.10
2024-01-06T05:38:18.306Z,20.40
2024-01-06T05:40:46.464Z,24.40
2024-01-06T05:43:14.787Z,20.50
2024-01-06T05:45:43.290Z,24.70
2024-01-06T05:48:12.274Z,20.00
2024-01-06T05:50:42.152Z,19.40
2024-01-06T05:53:11.896Z,23.30
2024-01-06T05:55:40.087Z,19.00
2024-01-06T05:58:08.264Z,18.50
2024-01-06T06:00:36.828Z,25.70
2024-01-06T06:03:06.177Z,20.30
2024-01-06T06:05:34.868Z,17.90
2024-01-06T06:08:03.091Z,20.20
2024-01-06T06:10:42.103Z,18.90
2024-01-06T06:13:12.263Z,23.20
2024-01-06T06:15:40.749Z,19.50
2024-01-06T06:18:10.122Z,18.70
2024-01-06T06:20:39.890Z,21.60
2024-01-06T06:23:08.318Z,21.10
2024-01-06T06:25:39.642Z,26.60
2024-01-06T06:28:07.830Z,24.00
2024-01-06T06:30:36.557Z,19.50
2024-01-06T06:33:05.987Z,22.30
2024-01-06T06:35:34.770Z,18.20
2024-01-06T06:38:03.481Z,23.80
2024-01-06T06:40:31.723Z,25.30
2024-01-06T06:43:00.254Z,26.90
2024-01-06T06:45:28.758Z,26.20
2024-01-06T06:47:57.194Z,22.60
2024-01-06T06:50:25.879Z,23.80
2024-01-06T06:52:54.233Z,26.60
2024-01-06T06:55:22.364Z,21.10
2024-01-06T06:57:50.808Z,25.70
2024-01-06T07:00:20.199Z,24.30
2024-01-06T07:02:49.020Z,24.80
2024-01-06T07:05:18.398Z,25.50
2024-01-06T07:07:48.002Z,22.20
2024-01-06T07:10:16.565Z,18.90
2024-01-06T07:12:44.976Z,22.30
2024-01-06T07:15:13.414Z,26.60
2024-01-06T07:17:41.724Z,19.70
2024-01-06T07:20:10.622Z,23.40
2024-01-06T07:22:39.162Z,27.80
2024-01-06T07:25:08.759Z,22.10
2024-01-06T07:27:37.084Z,18.80
2024-01-06T07:30:06.189Z,22.60
2024-01-06T07:32:34.531Z,22.10
2024-01-06T07:35:07.390Z,19.70
2024-01-06T07:37:36.489Z,21.00
2024-01-06T07:40:05.467Z,33.20
2024-01-06T07:42:33.649Z,25.00
2024-01-06T07:45:01.982Z,27.00
2024-01-06T07:47:30.232Z,30.80
2024-01-06T07:49:58.863Z,31.40
2024-01-06T07:52:27.325Z,25.70
2024-01-06T07:54:55.483Z,24.80
2024-01-06T07:57:23.695Z,32.60
2024-01-06T07:59:52.589Z,23.30
2024-01-06T08:02:20.987Z,22.50
2024-01-06T08:04:49.219Z,22.80
2024-01-06T08:07:17.823Z,22.20
2024-01-06T08:09:46.112Z,27.20
2024-01-06T08:12:14.703Z,24.50
2024-01-06T08:14:43.028Z,24.60
2024-01-06T08:17:11.175Z,24.80
2024-01-06T08:19:39.365Z,23.20
2024-01-06T08:22:07.645Z,24.60
2024-01-06T08:24:36.324Z,22.70
2024-01-06T08:27:05.221Z,20.70
2024-01-06T08:29:33.539Z,27.00
2024-01-06T08:32:02.082Z,23.30
2024-01-06T08:34:33.225Z,21.40
2024-01-06T08:37:01.916Z,23.30
2024-01-06T08:39:30.434Z,22.30
2024-01-06T08:42:01.618Z,24.60
2024-01-06T08:44:30.321Z,27.70
2024-01-06T08:46:58.842Z,23.40
2024-01-06T08:49:27.365Z,67.00
2024-01-06T08:51:55.893Z,25.30
2024-01-06T08:54:24.464Z,24.00
2024-01-06T08:56:52.732Z,20.60
2024-01-06T08:59:21.454Z,25.50
2024-01-06T09:01:50.675Z,24.60
2024-01-06T09:04:19.191Z,25.50
2024-01-06T09:06:48.461Z,22.70
2024-01-06T09:09:16.902Z,30.10
2024-01-06T09:11:45.494Z,26.90
2024-01-06T09:14:14.256Z,25.70
2024-01-06T09:16:42.532Z,32.40
2024-01-06T09:19:10.955Z,23.30
2024-01-06T09:21:39.380Z,25.80
2024-01-06T09:24:08.004Z,30.20
2024-01-06T09:26:37.040Z,33.60
2024-01-06T09:29:05.333Z,36.30
2024-01-06T09:31:34.078Z,34.30
2024-01-06T09:34:04.093Z,31.10
2024-01-06T09:36:33.300Z,38.60
2024-01-06T09:39:01.994Z,30.80
2024-01-06T09:41:30.567Z,26.60
2024-01-06T09:43:58.994Z,17.40
2024-01-06T09:46:30.462Z,22.10
2024-01-06T09:49:00.154Z,22.50
2024-01-06T09:51:30.190Z,18.90
2024-01-06T09:54:00.849Z,23.70
2024-01-06T09:56:30.840Z,27.70
2024-01-06T09:58:59.398Z,24.80
2024-01-06T10:01:27.764Z,23.50
2024-01-06T10:03:56.339Z,22.30
2024-01-06T10:06:24.563Z,25.40
2024-01-06T10:08:53.995Z,28.50
2024-01-06T10:11:24.140Z,17.60
2024-01-06T10:13:53.283Z,21.60
2024-01-06T10:16:21.872Z,18.10
2024-01-06T10:18:53.777Z,26.90
2024-01-06T10:21:23.967Z,23.30
2024-01-06T10:23:52.750Z,26.80
2024-01-06T10:26:21.413Z,21.10
2024-01-06T10:28:51.554Z,22.80
2024-01-06T10:31:20.491Z,18.90
2024-01-06T10:33:49.982Z,19.90
2024-01-06T10:36:19.384Z,22.30
2024-01-06T10:38:47.758Z,19.30
2024-01-06T10:41:17.716Z,21.80
2024-01-06T10:43:48.334Z,28.00
2024-01-06T10:46:17.451Z,30.80
2024-01-06T10:48:47.117Z,39.40
2024-01-06T10:51:16.648Z,37.80
2024-01-06T10:53:45.141Z,31.20
2024-01-06T10:56:13.734Z,31.20
2024-01-06T10:58:53.297Z,28.60
2024-01-06T11:01:27.925Z,26.90
2024-01-06T11:04:00.814Z,24.90
2024-01-06T11:06:30.492Z,22.90
2024-01-06T11:09:14.916Z,23.20
2024-01-06T11:11:44.030Z,24.20
2024-01-06T11:14:38.615Z,20.80
2024-01-06T11:17:06.956Z,16.70
2024-01-06T11:19:35.982Z,21.60
2024-01-06T11:22:21.507Z,19.50
2024-01-06T11:24:54.966Z,23.50
2024-01-06T11:27:31.297Z,16.30
2024-01-06T11:30:01.841Z,19.70
2024-01-06T11:32:37.862Z,19.30
2024-01-06T11:35:17.001Z,17.90
2024-01-06T11:37:46.477Z,18.40
2024-01-06T11:40:25.102Z,16.80
2024-01-06T11:43:10.688Z,17.60
2024-01-06T11:45:42.641Z,18.90
2024-01-06T11:48:14.070Z,22.50
2024-01-06T11:50:42.938Z,29.90
2024-01-06T11:53:11.919Z,15.90
2024-01-06T11:55:41.255Z,18.00
2024-01-06T11:58:09.912Z,23.60
2024-01-06T12:00:40.892Z,19.00
2024-01-06T12:03:10.239Z,17.90
2024-01-06T12:05:39.398Z,15.70
2024-01-06T12:08:09.285Z,12.00
2024-01-06T12:10:38.721Z,12.50
2024-01-06T12:13:13.306Z,17.20
2024-01-06T12:15:42.841Z,21.90
2024-01-06T12:18:11.471Z,18.00
2024-01-06T12:20:40.307Z,19.60
2024-01-06T12:23:08.638Z,20.20
2024-01-06T12:25:40.296Z,19.20
2024-01-06T12:28:10.021Z,19.50
2024-01-06T12:30:39.929Z,18.40
2024-01-06T12:33:08.670Z,22.50
2024-01-06T12:35:37.782Z,15.20
2024-01-06T12:38:08.430Z,18.90
2024-01-06T12:40:38.602Z,20.40
2024-01-06T12:43:07.370Z,22.40
2024-01-06T12:45:36.011Z,21.00
2024-01-06T12:48:05.127Z,16.80
2024-01-06T12:50:33.537Z,14.90
2024-01-06T12:53:02.593Z,22.90
2024-01-06T12:55:30.803Z,19.50
2024-01-06T12:58:02.692Z,15.30
2024-01-06T13:00:35.436Z,19.10
2024-01-06T13:03:06.152Z,21.00
2024-01-06T13:05:34.878Z,21.30
2024-01-06T13:08:04.159Z,21.70
2024-01-06T13:10:32.719Z,21.90
2024-01-06T13:13:01.305Z,19.20
2024-01-06T13:15:29.661Z,17.80
2024-01-06T13:17:58.461Z,21.50
2024-01-06T13:20:26.874Z,19.30
2024-01-06T13:22:55.307Z,19.70
2024-01-06T13:25:24.300Z,24.60
2024-01-06T13:27:53.092Z,22.70
2024-01-06T13:30:21.742Z,21.30
2024-01-06T13:32:52.122Z,17.20
2024-01-06T13:35:21.898Z,23.70
2024-01-06T13:37:51.829Z,22.60
2024-01-06T13:40:21.039Z,23.30
2024-01-06T13:42:51.943Z,21.10
2024-01-06T13:45:20.445Z,19.10
2024-01-06T13:47:49.260Z,20.00
2024-01-06T13:50:18.582Z,23.10
2024-01-06T13:52:46.942Z,20.30
2024-01-06T13:55:15.802Z,23.70
2024-01-06T13:57:44.265Z,25.70
2024-01-06T14:00:20.931Z,24.40
2024-01-06T14:02:50.164Z,22.00
2024-01-06T14:05:20.989Z,24.30
2024-01-06T14:07:51.974Z,23.10
2024-01-06T14:10:20.426Z,31.00
2024-01-06T14:12:50.855Z,28.40
2024-01-06T14:15:19.239Z,49.20
2024-01-06T14:17:51.328Z,45.40
2024-01-06T14:20:20.281Z,38.70
2024-01-06T14:22:50.031Z,38.30
2024-01-06T14:25:21.484Z,20.60
2024-01-06T14:27:50.386Z,24.70
2024-01-06T14:30:19.079Z,20.00
2024-01-06T14:32:47.537Z,23.80
2024-01-06T14:35:17.631Z,20.10
2024-01-06T14:37:46.158Z,18.90
2024-01-06T14:40:15.038Z,19.40
2024-01-06T14:42:43.422Z,27.30
2024-01-06T14:45:11.801Z,25.20
2024-01-06T14:47:41.868Z,23.80
2024-01-06T14:50:10.716Z,23.40
2024-01-06T14:52:38.872Z,26.60
2024-01-06T14:55:08.067Z,42.20
2024-01-06T14:57:36.921Z,37.80
2024-01-06T15:00:07.013Z,36.10
2024-01-06T15:02:35.332Z,30.40
2024-01-06T15:05:05.644Z,27.70
2024-01-06T15:07:34.223Z,20.40
2024-01-06T15:10:04.800Z,22.40
2024-01-06T15:12:33.426Z,24.80
2024-01-06T15:15:01.774Z,21.20
2024-01-06T15:17:30.076Z,18.50
2024-01-06T15:19:58.340Z,26.00
2024-01-06T15:22:26.918Z,22.50
2024-01-06T15:24:57.903Z,22.50
2024-01-06T15:27:27.183Z,26.40
2024-01-06T15:29:55.429Z,27.20
2024-01-06T15:32:23.760Z,31.70
2024-01-06T15:34:52.853Z,33.90
2024-01-06T15:37:21.397Z,35.70
2024-01-06T15:39:49.891Z,43.60
2024-01-06T15:42:18.645Z,49.30
2024-01-06T15:44:46.915Z,35.80
2024-01-06T15:47:15.573Z,34.60
2024-01-06T15:49:44.300Z,32.10
2024-01-06T15:52:12.739Z,29.80
2024-01-06T15:54:41.681Z,27.20
2024-01-06T15:57:11.062Z,28.80
2024-01-06T15:59:39.357Z,32.60
2024-01-06T16:02:07.802Z,35.30
2024-01-06T16:04:36.097Z,24.80
2024-01-06T16:07:07.157Z,30.60
2024-01-06T16:09:35.817Z,26.60
2024-01-06T16:12:07.424Z,24.50
2024-01-06T16:14:36.754Z,26.10
2024-01-06T16:17:05.329Z,22.10
2024-01-06T16:19:34.008Z,22.20
2024-01-06T16:22:11.409Z,26.80
2024-01-06T16:24:46.296Z,21.00
2024-01-06T16:27:15.104Z,23.60
2024-01-06T16:29:43.603Z,21.30
2024-01-06T16:32:12.028Z,28.80
2024-01-06T16:34:42.709Z,15.50
2024-01-06T16:37:12.316Z,21.00
2024-01-06T16:39:41.092Z,25.20
2024-01-06T16:42:09.465Z,29.60
2024-01-06T16:44:37.841Z,30.10
2024-01-06T16:47:06.743Z,32.80
2024-01-06T16:49:35.204Z,29.70
2024-01-06T16:52:04.238Z,30.10
2024-01-06T16:54:32.612Z,34.30
2024-01-06T16:57:01.453Z,29.70
2024-01-06T16:59:31.595Z,26.50
2024-01-06T17:02:01.974Z,29.70
2024-01-06T17:04:31.447Z,26.40
2024-01-06T17:07:01.024Z,26.20
2024-01-06T17:09:29.738Z,26.30
2024-01-06T17:11:58.080Z,21.30
2024-01-06T17:14:27.179Z,19.30
2024-01-06T17:16:55.260Z,29.20
2024-01-06T17:19:23.822Z,41.10
2024-01-06T17:21:52.203Z,26.00
2024-01-06T17:24:20.836Z,28.20
2024-01-06T17:26:49.096Z,31.20
2024-01-06T17:29:19.572Z,31.30
2024-01-06T17:31:48.246Z,28.30
2024-01-06T17:34:16.811Z,25.50
2024-01-06T17:36:45.109Z,22.40
2024-01-06T17:39:13.524Z,28.20
2024-01-06T17:41:50.025Z,27.50
2024-01-06T17:44:25.567Z,22.40
2024-01-06T17:46:54.434Z,25.70
2024-01-06T17:49:22.664Z,30.40
2024-01-06T17:51:51.299Z,24.40
2024-01-06T17:54:21.455Z,22.70
2024-01-06T17:56:50.170Z,26.50
2024-01-06T17:59:18.614Z,25.90
2024-01-06T18:01:46.925Z,29.50
2024-01-06T18:04:15.369Z,29.70
2024-01-06T18:06:45.012Z,25.50
2024-01-06T18:09:13.975Z,19.50
2024-01-06T18:11:43.902Z,22.70
2024-01-06T18:14:12.834Z,24.70
2024-01-06T18:16:41.673Z,29.50
2024-01-06T18:19:10.310Z,23.70
2024-01-06T18:21:38.899Z,24.90
2024-01-06T18:24:07.294Z,24.40
2024-01-06T18:26:35.481Z,26.00
2024-01-06T18:29:03.896Z,24.90
2024-01-06T18:31:32.870Z,37.70
2024-01-06T18:34:01.329Z,39.60
2024-01-06T18:36:29.987Z,32.30
2024-01-06T18:38:58.569Z,26.70
2024-01-06T18:41:27.391Z,27.30
2024-01-06T18:43:55.606Z,26.10
2024-01-06T18:46:24.056Z,39.70
2024-01-06T18:48:52.556Z,30.70
2024-01-06T18:51:20.874Z,23.10
2024-01-06T18:53:49.039Z,27.10
2024-01-06T18:56:17.482Z,29.60
2024-01-06T18:58:45.593Z,23.20
2024-01-06T19:01:13.852Z,34.30
2024-01-06T19:03:44.861Z,28.30
2024-01-06T19:06:13.183Z,30.60
2024-01-06T19:08:42.348Z,32.00
2024-01-06T19:11:10.505Z,24.20
2024-01-06T19:13:39.677Z,24.20
2024-01-06T19:16:08.886Z,25.40
2024-01-06T19:18:37.339Z,29.40
2024-01-06T19:21:08.037Z,23.70
2024-01-06T19:23:36.359Z,23.00
2024-01-06T19:26:05.791Z,24.10
2024-01-06T19:28:34.412Z,22.30
2024-01-06T19:31:02.908Z,23.20
2024-01-06T19:33:31.402Z,28.30
2024-01-06T19:36:00.090Z,30.80
2024-01-06T19:38:28.870Z,31.50
2024-01-06T19:40:57.223Z,38.80
2024-01-06T19:43:25.917Z,40.70
2024-01-06T19:45:55.570Z,28.60
2024-01-06T19:48:24.662Z,32.50
2024-01-06T19:50:53.697Z,32.50
2024-01-06T19:53:22.126Z,31.90
2024-01-06T19:55:50.309Z,34.70
2024-01-06T19:58:18.593Z,33.20
2024-01-06T20:00:47.033Z,42.50
2024-01-06T20:03:15.446Z,49.50
2024-01-06T20:05:44.390Z,46.40
2024-01-06T20:08:13.246Z,58.70
2024-01-06T20:10:41.343Z,45.50
2024-01-06T20:13:09.786Z,50.00
2024-01-06T20:15:39.317Z,40.90
2024-01-06T20:18:07.816Z,34.80
2024-01-06T20:20:36.414Z,44.90
2024-01-06T20:23:05.054Z,42.00
2024-01-06T20:25:33.243Z,43.90
2024-01-06T20:28:02.139Z,51.50
2024-01-06T20:30:31.125Z,36.70
2024-01-06T20:32:59.899Z,39.70
2024-01-06T20:35:28.556Z,47.80
2024-01-06T20:37:57.834Z,49.10
2024-01-06T20:40:27.026Z,37.90
2024-01-06T20:42:55.412Z,42.90
2024-01-06T20:45:23.954Z,46.50
2024-01-06T20:47:53.449Z,53.00
2024-01-06T20:50:22.208Z,52.60
2024-01-06T20:52:50.324Z,48.80
2024-01-06T20:55:18.506Z,46.10
2024-01-06T20:57:47.613Z,54.50
2024-01-06T21:00:18.545Z,48.40
2024-01-06T21:02:46.770Z,45.70
2024-01-06T21:05:15.698Z,54.60
2024-01-06T21:07:45.213Z,46.20
2024-01-06T21:10:13.724Z,58.50
2024-01-06T21:12:42.175Z,56.00
2024-01-06T21:15:10.595Z,47.90
2024-01-06T21:17:39.934Z,45.00
2024-01-06T21:20:09.820Z,47.40
2024-01-06T21:22:38.235Z,50.60
2024-01-06T21:25:07.764Z,48.70
2024-01-06T21:27:36.972Z,49.50
2024-01-06T21:30:07.140Z,46.00
2024-01-06T21:32:35.435Z,42.10
2024-01-06T21:35:05.260Z,43.70
2024-01-06T21:37:34.488Z,44.10
2024-01-06T21:40:08.022Z,42.10
2024-01-06T21:45:06.826Z,44.50
2024-01-06T21:47:35.166Z,49.30
2024-01-06T21:50:03.814Z,43.30
2024-01-06T21:52:31.982Z,43.20
2024-01-06T21:55:00.428Z,49.90
2024-01-06T21:57:28.784Z,42.80
2024-01-06T21:59:57.165Z,44.90
2024-01-06T22:02:25.578Z,47.50
2024-01-06T22:04:53.945Z,49.90
2024-01-06T22:07:22.108Z,45.90
2024-01-06T22:09:50.483Z,44.60
2024-01-06T22:12:19.107Z,48.50
2024-01-06T22:14:47.503Z,55.40
2024-01-06T22:17:16.061Z,50.30
2024-01-06T22:19:45.117Z,52.30
2024-01-06T22:22:13.985Z,47.70
2024-01-06T22:24:45.755Z,41.40
2024-01-06T22:27:16.154Z,49.90
2024-01-06T22:29:45.862Z,45.80
2024-01-06T22:32:14.047Z,46.30
2024-01-06T22:34:45.734Z,48.40
2024-01-06T22:37:15.071Z,46.00
2024-01-06T22:39:44.080Z,48.90
2024-01-06T22:42:12.556Z,52.50
2024-01-06T22:44:42.130Z,43.10
2024-01-06T22:47:10.348Z,41.60
2024-01-06T22:49:38.739Z,45.60
2024-01-06T22:52:07.070Z,47.40
2024-01-06T22:54:36.257Z,42.90
2024-01-06T22:57:05.343Z,48.40
2024-01-06T22:59:33.473Z,50.10
2024-01-06T23:02:01.620Z,56.10
2024-01-06T23:04:30.361Z,57.30
2024-01-06T23:06:58.704Z,46.30
2024-01-06T23:09:27.112Z,52.50
2024-01-06T23:11:55.526Z,49.60
2024-01-06T23:14:25.090Z,47.80
2024-01-06T23:16:53.742Z,47.10
2024-01-06T23:19:21.992Z,42.00
2024-01-06T23:21:50.330Z,44.20
2024-01-06T23:24:19.813Z,40.30
2024-01-06T23:26:48.454Z,42.20
2024-01-06T23:29:16.928Z,39.10
2024-01-06T23:31:45.555Z,47.10
2024-01-06T23:34:21.901Z,39.90
2024-01-06T23:37:01.781Z,37.10
2024-01-06T23:39:30.173Z,46.90
2024-01-06T23:41:58.506Z,41.90
2024-01-06T23:44:26.678Z,40.20
2024-01-06T23:46:55.807Z,50.70
2024-01-06T23:49:24.283Z,46.30
2024-01-06T23:51:52.523Z,44.90
2024-01-06T23:54:21.426Z,42.40
2024-01-06T23:56:49.779Z,42.20
2024-01-06T23:59:19.086Z,40.70
